Time;durP1;ratioP1;P1;durP2;ratioP2;P2;SDS_P1;SDS_P2;PMS_P1;PMS_P2;Temp;Humidity;BMP_temperature;BMP_pressure;BME280_temperature;BME280_humidity;BME280_pressure;Samples;Min_cycle;Max_cycle;Signal;HPM_P1;HPM_P2
2023/01/21 00:01:15;;;;;;;30.98;14.95;;;;;;;6.38;100.00;101836.78;5071503;28;20037;-79
2023/01/21 00:03:41;;;;;;;29.02;13.15;;;;;;;6.50;100.00;101861.66;5038729;28;20047;-80
2023/01/21 00:06:08;;;;;;;34.80;16.23;;;;;;;6.53;100.00;101859.56;5041663;28;20571;-78
2023/01/21 00:08:33;;;;;;;27.17;12.60;;;;;;;6.49;100.00;101866.16;5075240;28;20036;-81
2023/01/21 00:11:13;;;;;;;22.92;11.07;;;;;;;6.50;100.00;101867.00;5074888;28;20394;-81
2023/01/21 00:13:39;;;;;;;28.08;13.77;;;;;;;6.54;100.00;101868.47;5075107;28;20028;-81
2023/01/21 00:16:06;;;;;;;24.10;11.05;;;;;;;6.55;100.00;101868.34;5075123;28;20511;-82
2023/01/21 00:18:32;;;;;;;32.45;14.65;;;;;;;6.55;100.00;101862.16;5074898;28;20032;-82
2023/01/21 00:20:58;;;;;;;23.42;11.82;;;;;;;6.53;100.00;101864.94;5040505;28;20139;-82
2023/01/21 00:23:24;;;;;;;21.95;10.63;;;;;;;6.39;100.00;101843.81;5074651;28;20113;-82
2023/01/21 00:25:59;;;;;;;28.45;12.48;;;;;;;6.48;100.00;101858.25;5074906;28;20536;-80
2023/01/21 00:28:30;;;;;;;20.05;8.60;;;;;;;6.35;100.00;101848.56;5041878;28;20034;-80
2023/01/21 00:30:57;;;;;;;22.67;10.60;;;;;;;6.28;100.00;101844.66;5041822;28;20035;-82
2023/01/21 00:33:22;;;;;;;23.38;11.32;;;;;;;6.43;100.00;101872.00;5058400;28;20048;-80
2023/01/21 00:35:57;;;;;;;18.20;8.07;;;;;;;6.43;100.00;101865.78;5076127;28;20024;-79
2023/01/21 00:38:22;;;;;;;29.55;11.20;;;;;;;6.48;100.00;101869.78;5058193;28;20107;-80
2023/01/21 00:40:48;;;;;;;39.92;16.20;;;;;;;6.51;100.00;101882.94;5058272;28;20123;-80
2023/01/21 00:43:13;;;;;;;20.35;10.93;;;;;;;6.53;100.00;101891.66;5074527;28;20040;-80
2023/01/21 00:45:40;;;;;;;21.38;10.40;;;;;;;6.53;100.00;101888.97;5074156;28;20471;-79
2023/01/21 00:48:05;;;;;;;15.38;7.32;;;;;;;6.51;100.00;101874.03;5057757;28;20024;-79
2023/01/21 00:50:31;;;;;;;25.23;11.32;;;;;;;6.57;100.00;101882.44;5057555;28;20486;-79
2023/01/21 00:52:57;;;;;;;19.05;9.02;;;;;;;6.69;100.00;101893.09;5074303;28;20032;-79
2023/01/21 00:55:22;;;;;;;12.80;6.22;;;;;;;6.62;100.00;101873.22;5057847;28;20039;-79
2023/01/21 00:57:48;;;;;;;14.63;6.90;;;;;;;6.79;100.00;101902.09;5075189;28;20037;-80
2023/01/21 01:00:15;;;;;;;34.88;11.10;;;;;;;6.79;100.00;101899.41;5057766;28;20039;-79
2023/01/21 01:02:41;;;;;;;15.90;7.93;;;;;;;6.75;100.00;101893.47;5073956;28;20029;-79
2023/01/21 01:05:07;;;;;;;13.25;6.20;;;;;;;6.76;100.00;101895.16;5075211;28;20036;-79
2023/01/21 01:07:34;;;;;;;15.43;7.65;;;;;;;6.80;100.00;101907.31;5075192;28;20021;-79
2023/01/21 01:09:59;;;;;;;16.33;7.18;;;;;;;6.75;100.00;101900.66;5073987;28;20458;-79
2023/01/21 01:12:27;;;;;;;13.32;7.53;;;;;;;6.74;100.00;101898.94;5057702;28;20063;-79
2023/01/21 01:14:53;;;;;;;14.20;6.95;;;;;;;6.72;100.00;101903.53;5057658;28;20126;-79
2023/01/21 01:17:18;;;;;;;15.18;7.45;;;;;;;6.64;100.00;101896.13;5056561;28;20538;-79
2023/01/21 01:19:44;;;;;;;11.95;6.50;;;;;;;6.64;100.00;101901.47;5073703;28;20378;-79
2023/01/21 01:22:10;;;;;;;11.27;6.30;;;;;;;6.58;100.00;101894.81;5073691;28;20025;-79
2023/01/21 01:24:35;;;;;;;13.52;6.95;;;;;;;6.58;100.00;101902.81;5057468;28;20039;-79
2023/01/21 01:27:01;;;;;;;12.68;6.75;;;;;;;6.66;100.00;101909.38;5056926;28;20466;-79
2023/01/21 01:29:27;;;;;;;13.48;6.20;;;;;;;6.63;100.00;101902.47;5040874;28;20393;-80
2023/01/21 01:31:53;;;;;;;10.63;5.75;;;;;;;6.62;100.00;101897.25;5040590;28;20040;-79
2023/01/21 01:34:19;;;;;;;13.63;6.45;;;;;;;6.59;100.00;101899.19;5056905;28;20109;-79
2023/01/21 01:36:44;;;;;;;10.80;6.25;;;;;;;6.61;100.00;101899.06;5073428;28;20082;-79
2023/01/21 01:39:10;;;;;;;15.32;6.63;;;;;;;6.63;100.00;101898.94;5073378;28;20043;-79
2023/01/21 01:41:38;;;;;;;9.40;4.95;;;;;;;6.71;100.00;101916.06;5040537;28;20035;-79
2023/01/21 01:44:41;;;;;;;8.02;4.78;;;;;;;6.78;100.00;101913.75;5074824;28;20032;-80
2023/01/21 01:47:07;;;;;;;13.40;6.65;;;;;;;6.77;100.00;101912.94;5072806;28;20040;-80
2023/01/21 01:49:32;;;;;;;9.45;5.50;;;;;;;6.77;100.00;101912.94;5073160;28;20033;-80
2023/01/21 01:52:00;;;;;;;11.30;5.28;;;;;;;6.82;100.00;101915.22;5073024;28;20021;-80
2023/01/21 01:54:29;;;;;;;11.07;5.80;;;;;;;6.80;100.00;101911.78;5056926;28;20044;-79
2023/01/21 01:56:57;;;;;;;12.98;6.43;;;;;;;6.83;100.00;101922.28;5056612;28;20094;-80
2023/01/21 01:59:23;;;;;;;8.38;4.60;;;;;;;6.86;100.00;101923.84;5073380;28;20024;-79
2023/01/21 02:01:49;;;;;;;12.60;5.47;;;;;;;6.87;100.00;101925.53;5040018;28;20035;-79
2023/01/21 02:04:21;;;;;;;8.32;4.68;;;;;;;6.86;100.00;101916.69;5072706;28;20024;-79
2023/01/21 02:06:48;;;;;;;7.95;4.28;;;;;;;6.83;100.00;101922.28;5056220;28;20071;-80
2023/01/21 02:09:13;;;;;;;12.40;4.75;;;;;;;6.88;100.00;101924.56;5072660;28;20036;-79
2023/01/21 02:11:39;;;;;;;9.27;5.10;;;;;;;6.82;100.00;101920.56;5072582;28;20417;-80
2023/01/21 02:14:04;;;;;;;9.23;5.30;;;;;;;6.84;100.00;101918.63;5072806;28;20029;-79
2023/01/21 02:17:01;;;;;;;3.95;3.00;;;;;;;6.82;100.00;101920.56;5073018;28;20036;-79
2023/01/21 02:19:55;;;;;;;11.55;5.40;;;;;;;6.76;100.00;101911.19;5073897;28;20029;-79
2023/01/21 02:22:56;;;;;;;9.75;4.53;;;;;;;6.81;100.00;101919.72;5056244;28;20028;-79
2023/01/21 02:25:40;;;;;;;7.70;4.00;;;;;;;6.89;100.00;101924.44;5072722;28;20548;-79
2023/01/21 02:28:09;;;;;;;8.93;3.22;;;;;;;6.93;100.00;101923.25;5055083;28;20114;-80
2023/01/21 02:31:10;;;;;;;6.82;3.53;;;;;;;6.95;100.00;101929.28;5072614;28;20050;-79
2023/01/21 02:33:44;;;;;;;8.00;3.05;;;;;;;7.02;100.00;101943.88;5053081;28;20053;-79
2023/01/21 02:36:28;;;;;;;7.15;4.00;;;;;;;7.07;100.00;101938.16;5039495;28;20628;-79
2023/01/21 02:39:02;;;;;;;5.65;2.85;;;;;;;7.03;100.00;101934.88;5073414;28;20033;-78
2023/01/21 02:41:40;;;;;;;9.45;4.22;;;;;;;7.10;100.00;101939.75;5072773;28;20075;-79
2023/01/21 02:44:09;;;;;;;8.85;4.40;;;;;;;7.11;100.00;101933.41;5072543;28;20081;-81
2023/01/21 02:46:49;;;;;;;8.38;3.50;;;;;;;7.13;100.00;101924.28;5039318;28;20115;-79
2023/01/21 02:49:43;;;;;;;6.30;3.80;;;;;;;7.16;100.00;101933.88;5039454;28;20036;-79
2023/01/21 02:52:19;;;;;;;7.07;3.25;;;;;;;7.13;100.00;101926.94;5065867;28;20032;-79
2023/01/21 02:54:48;;;;;;;7.68;4.38;;;;;;;7.09;100.00;101930.00;5039309;28;20029;-79
2023/01/21 02:57:20;;;;;;;8.10;3.45;;;;;;;7.14;100.00;101943.84;5072172;28;20082;-80
2023/01/21 02:59:48;;;;;;;7.68;4.20;;;;;;;7.17;100.00;101948.94;5039127;28;20028;-79
2023/01/21 03:02:23;;;;;;;6.65;3.50;;;;;;;7.15;100.00;101942.91;5072002;28;20466;-79
2023/01/21 03:05:14;;;;;;;9.70;4.22;;;;;;;7.12;100.00;101946.66;5071676;28;20339;-80
2023/01/21 03:07:58;;;;;;;7.03;3.58;;;;;;;7.05;100.00;101948.97;5072095;28;20466;-79
2023/01/21 03:10:39;;;;;;;6.43;3.42;;;;;;;7.11;100.00;101960.16;5039220;28;20029;-80
2023/01/21 03:13:12;;;;;;;11.57;3.85;;;;;;;7.14;100.00;101958.06;5039121;28;20040;-79
2023/01/21 03:18:28;;;;;;;10.95;4.70;;;;;;;7.07;100.00;101953.38;5072159;28;20039;-79
2023/01/21 03:21:02;;;;;;;6.85;3.15;;;;;;;7.14;100.00;101970.59;5038884;28;20079;-78
2023/01/21 03:23:31;;;;;;;9.38;4.07;;;;;;;7.14;100.00;101967.91;5038689;28;20122;-79
2023/01/21 03:25:58;;;;;;;9.27;4.40;;;;;;;7.16;100.00;101960.63;5038871;28;20128;-80
2023/01/21 03:28:26;;;;;;;10.68;4.20;;;;;;;7.14;100.00;101955.38;5038931;28;20463;-79
2023/01/21 03:30:55;;;;;;;10.10;4.38;;;;;;;7.12;100.00;101953.81;5054967;28;20028;-79
2023/01/21 03:33:22;;;;;;;6.60;3.50;;;;;;;7.09;100.00;101954.06;5038867;28;20119;-79
2023/01/21 03:35:50;;;;;;;8.80;4.43;;;;;;;7.00;100.00;101939.63;5055024;28;20029;-79
2023/01/21 03:38:23;;;;;;;8.75;4.45;;;;;;;7.17;100.00;101962.31;5055028;28;20394;-79
2023/01/21 03:40:58;;;;;;;9.07;4.90;;;;;;;7.19;100.00;101963.06;5074567;28;20025;-79
2023/01/21 03:43:24;;;;;;;10.25;3.72;;;;;;;7.23;100.00;101972.53;5059413;28;20044;-81
2023/01/21 03:45:58;;;;;;;5.18;2.88;;;;;;;7.24;100.00;101979.59;5075900;28;20056;-79
2023/01/21 03:48:30;;;;;;;8.43;3.97;;;;;;;7.25;100.00;101979.47;5075943;28;20044;-79
2023/01/21 03:51:01;;;;;;;9.40;4.30;;;;;;;7.32;100.00;101987.00;5075239;28;20039;-79
2023/01/21 03:53:27;;;;;;;14.32;5.30;;;;;;;7.36;100.00;101989.31;5059288;28;20035;-80
2023/01/21 03:55:53;;;;;;;5.32;3.30;;;;;;;7.33;100.00;101981.53;5075362;28;20032;-80
2023/01/21 03:58:18;;;;;;;7.55;3.47;;;;;;;7.37;100.00;101996.34;5075176;28;20390;-79
2023/01/21 04:00:45;;;;;;;7.35;4.25;;;;;;;7.31;100.00;101988.81;5058663;28;20028;-80
2023/01/21 04:03:11;;;;;;;16.00;5.50;;;;;;;7.29;100.00;101993.44;5042637;28;20048;-80
2023/01/21 04:05:36;;;;;;;5.53;2.30;;;;;;;7.32;100.00;102000.38;5075051;28;20032;-79
2023/01/21 04:08:02;;;;;;;7.93;4.43;;;;;;;7.32;100.00;102000.38;5075099;28;20025;-79
2023/01/21 04:10:28;;;;;;;9.38;3.58;;;;;;;7.29;100.00;101995.28;5058634;28;20033;-79
2023/01/21 04:12:53;;;;;;;8.57;3.55;;;;;;;7.31;100.00;101994.16;5058835;28;20036;-79
2023/01/21 04:15:19;;;;;;;3.30;2.13;;;;;;;7.27;100.00;101990.88;5076255;28;20037;-79
2023/01/21 04:17:45;;;;;;;7.35;3.90;;;;;;;7.34;100.00;101995.75;5075013;28;20431;-80
2023/01/21 04:20:11;;;;;;;7.85;3.72;;;;;;;7.31;100.00;101982.63;5041983;28;20055;-79
2023/01/21 04:22:37;;;;;;;7.05;2.92;;;;;;;7.31;100.00;101991.50;5075087;28;20104;-79
2023/01/21 04:25:04;;;;;;;7.85;2.92;;;;;;;7.26;100.00;101983.00;5041802;28;20115;-81
2023/01/21 04:27:30;;;;;;;7.03;3.63;;;;;;;7.34;100.00;101995.75;5074883;28;20060;-80
2023/01/21 04:29:55;;;;;;;9.18;3.20;;;;;;;7.31;100.00;101996.00;5074813;28;20086;-79
2023/01/21 04:32:21;;;;;;;5.60;3.13;;;;;;;7.35;100.00;101997.44;5074807;28;20024;-79
2023/01/21 04:34:47;;;;;;;2.75;1.48;;;;;;;7.31;100.00;101985.31;5067258;28;20119;-79
2023/01/21 04:37:12;;;;;;;5.28;2.88;;;;;;;7.31;100.00;101987.97;5047391;28;20093;-80
2023/01/21 04:39:38;;;;;;;7.30;3.28;;;;;;;7.30;100.00;101989.78;5058437;28;20044;-80
2023/01/21 04:42:04;;;;;;;10.02;3.97;;;;;;;7.35;100.00;101989.41;5076068;28;20040;-79
2023/01/21 04:44:29;;;;;;;6.93;3.67;;;;;;;7.36;100.00;101991.97;5075076;28;20036;-80
2023/01/21 04:46:55;;;;;;;6.20;3.33;;;;;;;7.31;100.00;101969.25;5041399;28;20035;-80
2023/01/21 04:49:21;;;;;;;4.50;3.10;;;;;;;7.36;100.00;101980.44;5075993;28;20025;-79
2023/01/21 04:51:46;;;;;;;9.85;4.60;;;;;;;7.39;100.00;101973.00;5075609;28;20470;-79
2023/01/21 04:54:15;;;;;;;6.90;4.07;;;;;;;7.38;100.00;101971.31;5074741;28;20032;-80
2023/01/21 04:56:41;;;;;;;6.28;3.72;;;;;;;7.36;100.00;101975.06;5075288;28;20479;-79
2023/01/21 04:59:10;;;;;;;4.93;3.20;;;;;;;7.34;100.00;101969.84;5075193;28;20028;-81
2023/01/21 05:01:35;;;;;;;6.55;3.22;;;;;;;7.37;100.00;101974.94;5074327;28;20490;-79
2023/01/21 05:04:01;;;;;;;7.20;3.72;;;;;;;7.32;100.00;101981.63;5075219;28;20024;-81
2023/01/21 05:06:35;;;;;;;7.03;3.40;;;;;;;7.36;100.00;101983.94;5074963;28;20036;-81
2023/01/21 05:09:01;;;;;;;11.35;3.88;;;;;;;7.27;100.00;101972.16;5057472;28;20044;-79
2023/01/21 05:11:27;;;;;;;7.22;3.95;;;;;;;7.39;100.00;101988.19;5074236;28;20032;-80
2023/01/21 05:13:52;;;;;;;5.75;2.70;;;;;;;7.40;100.00;101980.03;5057551;28;20032;-80
2023/01/21 05:16:18;;;;;;;7.00;3.83;;;;;;;7.41;100.00;101984.44;5075180;28;20033;-79
2023/01/21 05:18:44;;;;;;;7.45;3.95;;;;;;;7.31;100.00;101983.47;5074391;28;20127;-80
2023/01/21 05:21:10;;;;;;;6.53;3.50;;;;;;;7.25;100.00;101975.91;5057565;28;20036;-81
2023/01/21 05:23:36;;;;;;;8.68;4.28;;;;;;;7.26;100.00;101978.47;5073676;28;20031;-80
2023/01/21 05:26:02;;;;;;;6.85;3.95;;;;;;;7.23;100.00;101969.88;5074903;28;20098;-80
2023/01/21 05:28:27;;;;;;;8.13;3.47;;;;;;;7.30;100.00;101980.91;5074037;28;20115;-81
2023/01/21 05:30:53;;;;;;;10.30;4.45;;;;;;;7.35;100.00;101986.75;5057241;28;20051;-80
2023/01/21 05:33:24;;;;;;;9.57;4.30;;;;;;;7.32;100.00;101985.16;5074974;28;20056;-82
2023/01/21 05:35:50;;;;;;;7.47;3.65;;;;;;;7.37;100.00;101976.75;5073788;28;20039;-78
2023/01/21 05:38:16;;;;;;;7.20;3.83;;;;;;;7.34;100.00;101975.19;5073535;28;20123;-80
2023/01/21 05:40:42;;;;;;;6.95;3.92;;;;;;;7.39;100.00;101986.38;5074556;28;20033;-80
2023/01/21 05:43:07;;;;;;;6.00;3.60;;;;;;;7.38;100.00;101987.34;5056731;28;20037;-81
2023/01/21 05:45:33;;;;;;;8.40;3.80;;;;;;;7.38;100.00;101984.69;5057067;28;20066;-80
2023/01/21 05:47:58;;;;;;;6.03;3.13;;;;;;;7.44;100.00;101984.16;5056621;28;20024;-81
2023/01/21 05:50:24;;;;;;;7.80;3.58;;;;;;;7.36;100.00;101975.06;5073163;28;20040;-80
2023/01/21 05:52:50;;;;;;;5.88;3.45;;;;;;;7.46;100.00;101987.56;5072893;28;20082;-81
2023/01/21 05:55:15;;;;;;;6.30;3.13;;;;;;;7.38;100.00;101976.66;5073454;28;20033;-81
2023/01/21 05:57:41;;;;;;;4.90;3.40;;;;;;;7.47;100.00;101983.06;5074457;28;20032;-81
2023/01/21 06:00:07;;;;;;;5.35;3.03;;;;;;;7.32;100.00;101952.22;5073259;28;20032;-81
2023/01/21 06:02:33;;;;;;;5.70;3.35;;;;;;;7.45;100.00;101977.84;5039887;28;20105;-81
2023/01/21 06:04:59;;;;;;;6.38;3.45;;;;;;;7.51;100.00;101980.97;5074099;28;20473;-81
2023/01/21 06:07:24;;;;;;;6.78;3.35;;;;;;;7.51;100.00;101976.47;5056300;28;20048;-80
2023/01/21 06:09:50;;;;;;;5.15;2.95;;;;;;;7.53;100.00;101987.06;5074007;28;20064;-80
2023/01/21 06:12:15;;;;;;;6.32;2.88;;;;;;;7.55;100.00;101977.09;5074012;28;20078;-81
2023/01/21 06:14:41;;;;;;;5.60;2.78;;;;;;;7.57;100.00;101981.34;5072852;28;20488;-81
2023/01/21 06:17:07;;;;;;;4.50;2.60;;;;;;;7.62;100.00;101983.63;5072747;28;20024;-81
2023/01/21 06:19:32;;;;;;;6.32;2.95;;;;;;;7.56;100.00;101965.41;5072882;28;20077;-80
2023/01/21 06:21:58;;;;;;;4.70;2.08;;;;;;;7.59;100.00;101968.66;5072952;28;20036;-80
2023/01/21 06:24:24;;;;;;;3.67;2.33;;;;;;;7.60;100.00;101974.88;5072752;28;20025;-80
2023/01/21 06:26:49;;;;;;;6.90;3.00;;;;;;;7.64;100.00;101981.66;5072593;28;20028;-79
2023/01/21 06:29:15;;;;;;;4.90;2.35;;;;;;;7.64;100.00;101987.88;5072475;28;20086;-81
2023/01/21 06:31:41;;;;;;;5.13;2.80;;;;;;;7.64;100.00;101984.34;5056103;28;20036;-81
2023/01/21 06:34:08;;;;;;;5.05;2.78;;;;;;;7.60;100.00;101974.88;5055830;28;20028;-82
2023/01/21 06:36:35;;;;;;;5.05;3.00;;;;;;;7.59;100.00;101979.38;5072353;28;20067;-81
2023/01/21 06:39:01;;;;;;;5.68;2.85;;;;;;;7.58;100.00;101977.69;5073754;28;20115;-80
2023/01/21 06:41:27;;;;;;;4.10;2.55;;;;;;;7.60;100.00;101980.25;5072565;28;20526;-81
2023/01/21 06:43:52;;;;;;;4.05;2.40;;;;;;;7.62;100.00;101986.28;5072242;28;20368;-79
2023/01/21 06:46:18;;;;;;;3.30;1.85;;;;;;;7.60;100.00;101980.25;5073480;28;20090;-80
2023/01/21 06:48:46;;;;;;;4.22;2.42;;;;;;;7.64;100.00;101993.22;5072391;28;20036;-80
2023/01/21 06:51:11;;;;;;;4.32;1.98;;;;;;;7.58;100.00;101982.19;5073527;28;20471;-80
2023/01/21 06:53:37;;;;;;;5.70;2.70;;;;;;;7.65;100.00;101991.41;5072156;28;20071;-81
2023/01/21 06:56:03;;;;;;;4.80;2.80;;;;;;;7.69;100.00;101993.69;5071990;28;20060;-80
2023/01/21 06:58:29;;;;;;;3.70;2.47;;;;;;;7.75;100.00;101995.00;5073706;28;20040;-80
2023/01/21 07:00:55;;;;;;;6.32;3.60;;;;;;;7.79;100.00;101995.63;5072324;28;20036;-81
2023/01/21 07:03:21;;;;;;;5.05;3.30;;;;;;;7.80;100.00;101998.16;5072314;28;20036;-81
2023/01/21 07:05:47;;;;;;;6.60;3.15;;;;;;;7.81;100.00;101996.34;5072290;28;20021;-81
2023/01/21 07:08:12;;;;;;;10.02;5.38;;;;;;;7.85;100.00;102000.47;5072051;28;20032;-81
2023/01/21 07:10:38;;;;;;;7.38;3.55;;;;;;;7.81;100.00;101989.16;5072260;28;20033;-80
2023/01/21 07:13:06;;;;;;;4.72;2.92;;;;;;;7.74;100.00;101968.38;5073156;28;20024;-80
2023/01/21 07:15:32;;;;;;;9.23;4.78;;;;;;;7.88;100.00;101995.69;5060864;28;20082;-81
2023/01/21 07:17:57;;;;;;;7.50;5.15;;;;;;;7.82;100.00;101990.00;5061679;28;20036;-81
2023/01/21 07:20:25;;;;;;;6.53;3.80;;;;;;;7.89;100.00;101993.88;5061828;28;20443;-81
2023/01/21 07:22:51;;;;;;;7.35;3.53;;;;;;;7.84;100.00;101983.56;5078918;28;20058;-81
2023/01/21 07:25:16;;;;;;;8.50;4.80;;;;;;;7.87;100.00;101985.97;5062072;28;20028;-80
2023/01/21 07:27:42;;;;;;;8.65;4.90;;;;;;;7.87;100.00;101991.31;5078252;28;20471;-80
2023/01/21 07:30:14;;;;;;;5.38;3.25;;;;;;;7.80;100.00;101979.41;5078585;28;20024;-80
2023/01/21 07:32:40;;;;;;;8.63;4.50;;;;;;;7.88;100.00;101993.00;5045311;28;20445;-80
2023/01/21 07:35:06;;;;;;;6.20;3.50;;;;;;;7.90;100.00;101996.41;5079913;28;20028;-80
2023/01/21 07:37:31;;;;;;;5.93;3.25;;;;;;;7.86;100.00;101992.31;5078274;28;20505;-81
2023/01/21 07:39:57;;;;;;;6.50;3.67;;;;;;;7.88;100.00;101993.00;5062120;28;20055;-82
2023/01/21 07:42:23;;;;;;;6.22;3.10;;;;;;;7.87;100.00;101994.00;5061885;28;20089;-80
2023/01/21 07:44:49;;;;;;;4.97;2.95;;;;;;;7.81;100.00;101983.81;5078267;28;20036;-80
2023/01/21 07:47:14;;;;;;;3.95;2.72;;;;;;;7.84;100.00;101983.56;5061730;28;20467;-80
2023/01/21 07:49:40;;;;;;;3.70;2.50;;;;;;;7.85;100.00;101989.75;5061229;28;20032;-80
2023/01/21 07:52:06;;;;;;;4.18;2.40;;;;;;;7.93;100.00;102001.50;5061889;28;20532;-80
2023/01/21 07:54:31;;;;;;;4.97;2.83;;;;;;;7.94;100.00;102002.38;5078473;28;20481;-80
2023/01/21 07:56:57;;;;;;;5.72;3.15;;;;;;;7.97;100.00;101998.59;5079569;28;20037;-80
2023/01/21 07:59:23;;;;;;;5.70;3.17;;;;;;;7.95;100.00;101995.19;5078324;28;20029;-79
2023/01/21 08:01:48;;;;;;;4.22;2.67;;;;;;;7.92;100.00;101988.28;5078600;28;20033;-80
2023/01/21 08:04:14;;;;;;;4.38;2.63;;;;;;;7.95;100.00;102000.56;5061753;28;20036;-80
2023/01/21 08:06:40;;;;;;;3.20;2.17;;;;;;;7.93;100.00;101996.16;5078410;28;20033;-81
2023/01/21 08:09:06;;;;;;;3.75;2.30;;;;;;;8.02;100.00;102004.41;5079393;28;20035;-80
2023/01/21 08:11:32;;;;;;;3.17;1.70;;;;;;;8.00;100.00;102009.06;5078391;28;20032;-80
2023/01/21 08:13:58;;;;;;;4.40;1.77;;;;;;;7.95;100.00;102001.41;5078408;28;20466;-80
2023/01/21 08:16:24;;;;;;;4.72;2.13;;;;;;;8.06;100.00;102014.72;5078166;28;20032;-81
2023/01/21 08:18:50;;;;;;;4.22;2.33;;;;;;;8.10;100.00;102002.78;5061731;28;20127;-80
2023/01/21 08:21:15;;;;;;;3.42;2.00;;;;;;;8.10;100.00;102004.63;5078067;28;20500;-80
2023/01/21 08:23:41;;;;;;;3.72;2.00;;;;;;;8.07;100.00;102005.75;5078303;28;20479;-79
2023/01/21 08:26:07;;;;;;;3.83;1.90;;;;;;;8.05;100.00;102004.16;5076349;28;20028;-80
2023/01/21 08:28:35;;;;;;;4.25;1.98;;;;;;;8.10;100.00;102012.66;5075168;28;20033;-80
2023/01/21 08:31:07;;;;;;;2.88;2.10;;;;;;;8.14;100.00;102019.44;5075019;28;20039;-80
2023/01/21 08:33:32;;;;;;;2.95;2.00;;;;;;;8.14;100.00;102009.59;5074701;28;20097;-80
2023/01/21 08:35:59;;;;;;;2.40;1.77;;;;;;;8.13;100.00;102004.38;5058156;28;20033;-80
2023/01/21 08:38:25;;;;;;;3.75;2.20;;;;;;;8.21;100.00;102014.44;5057915;28;20462;-81
2023/01/21 08:40:51;;;;;;;2.97;1.80;;;;;;;8.17;100.00;102005.78;5074917;28;20051;-80
2023/01/21 08:43:16;;;;;;;4.07;1.90;;;;;;;8.27;100.00;102012.06;5057846;28;20037;-80
2023/01/21 08:45:44;;;;;;;2.63;1.65;;;;;;;8.30;100.00;102010.97;5074316;28;20031;-80
2023/01/21 08:48:10;;;;;;;3.85;2.25;;;;;;;8.29;100.00;102006.59;5074596;28;20063;-80
2023/01/21 08:50:36;;;;;;;3.97;2.15;;;;;;;8.30;100.00;102002.94;5074350;28;20064;-80
2023/01/21 08:53:01;;;;;;;3.17;2.20;;;;;;;8.22;100.00;101992.84;5075112;28;20020;-80
2023/01/21 08:55:27;;;;;;;3.47;1.98;;;;;;;8.36;100.00;102008.63;5075206;28;20442;-80
2023/01/21 08:57:54;;;;;;;10.65;4.15;;;;;;;8.35;100.00;102001.56;5074074;28;20434;-80
2023/01/21 09:00:22;;;;;;;24.65;8.35;;;;;;;8.36;100.00;101995.22;5074252;28;20029;-80
2023/01/21 09:02:48;;;;;;;10.40;3.95;;;;;;;8.34;100.00;101991.81;5041268;28;20040;-80
2023/01/21 09:05:14;;;;;;;9.45;4.60;;;;;;;8.38;100.00;102001.28;5075078;28;20039;-80
2023/01/21 09:07:39;;;;;;;6.05;3.40;;;;;;;8.41;100.00;102007.41;5057364;28;20035;-79
2023/01/21 09:10:06;;;;;;;2.42;1.55;;;;;;;8.40;100.00;102003.03;5041062;28;20033;-80
2023/01/21 09:12:37;;;;;;;3.78;2.40;;;;;;;8.49;100.00;102007.59;5073641;28;20458;-80
2023/01/21 09:15:04;;;;;;;2.50;1.58;;;;;;;8.54;100.00;102008.91;5073722;28;20479;-80
2023/01/21 09:17:29;;;;;;;5.05;1.73;;;;;;;8.59;100.00;102005.84;5057397;28;20432;-81
2023/01/21 09:19:55;;;;;;;2.40;1.88;;;;;;;8.57;100.00;102008.66;5074630;28;20024;-82
2023/01/21 09:22:21;;;;;;;1.73;1.40;;;;;;;8.54;100.00;101998.19;5073625;28;20454;-80
2023/01/21 09:24:47;;;;;;;2.70;1.60;;;;;;;8.62;100.00;102008.25;5073706;28;20033;-81
2023/01/21 09:27:13;;;;;;;2.22;1.08;;;;;;;8.56;100.00;101996.22;5056693;28;20056;-82
2023/01/21 09:29:38;;;;;;;2.05;1.40;;;;;;;8.59;100.00;102006.66;5056929;28;20391;-81
2023/01/21 09:32:04;;;;;;;5.45;3.55;;;;;;;8.67;100.00;102007.84;5073722;28;20105;-81
2023/01/21 09:34:30;;;;;;;3.00;1.90;;;;;;;8.72;100.00;102016.34;5056678;28;20028;-81
2023/01/21 09:36:56;;;;;;;2.92;1.85;;;;;;;8.78;100.00;102022.00;5074175;28;20060;-80
2023/01/21 09:39:25;;;;;;;4.47;1.65;;;;;;;8.82;100.00;102011.03;5074487;28;20056;-81
2023/01/21 09:41:57;;;;;;;2.35;1.55;;;;;;;8.92;100.00;102015.47;5073292;28;20036;-81
2023/01/21 09:44:43;;;;;;;9.60;2.65;;;;;;;8.86;100.00;101999.06;5073546;28;20040;-80
2023/01/21 09:47:29;;;;;;;11.23;4.45;;;;;;;9.03;100.00;102025.25;5040170;28;20360;-80
2023/01/21 09:50:05;;;;;;;16.52;7.15;;;;;;;9.06;100.00;102024.97;5040176;28;20086;-81
2023/01/21 09:52:42;;;;;;;7.88;4.60;;;;;;;9.03;100.00;102015.38;5073361;28;20049;-83
2023/01/21 09:55:18;;;;;;;5.30;3.70;;;;;;;9.16;100.00;102025.03;5056314;28;20028;-81
2023/01/21 09:58:02;;;;;;;6.72;3.85;;;;;;;9.24;100.00;102033.25;5056002;28;20040;-82
2023/01/21 10:00:33;;;;;;;3.67;2.80;;;;;;;9.28;100.00;102031.97;5073760;28;20073;-79
2023/01/21 10:03:10;;;;;;;2.75;2.30;;;;;;;9.32;100.00;102029.88;5071955;28;20425;-81
2023/01/21 10:05:50;;;;;;;4.38;2.63;;;;;;;9.37;100.00;102033.03;5074117;28;20039;-82
2023/01/21 10:08:39;;;;;;;5.25;2.28;;;;;;;9.39;100.00;102025.66;5055194;28;20498;-83
2023/01/21 10:11:07;;;;;;;3.72;2.50;;;;;;;9.41;100.00;102018.31;5073436;28;20036;-83
2023/01/21 10:13:51;;;;;;;3.13;2.22;;;;;;;9.54;100.00;102032.34;5056691;28;20036;-83
2023/01/21 10:16:23;;;;;;;3.25;1.95;;;;;;;9.61;100.00;102029.97;5072845;28;20031;-83
2023/01/21 10:18:50;;;;;;;3.50;1.88;;;;;;;9.63;100.00;102027.97;5073158;28;20029;-82
2023/01/21 10:21:34;;;;;;;2.88;1.60;;;;;;;9.66;100.00;102030.41;5072629;28;20432;-83
2023/01/21 10:24:12;;;;;;;2.83;2.20;;;;;;;9.71;100.00;102030.81;5039793;28;20406;-83
2023/01/21 10:26:39;;;;;;;3.08;2.15;;;;;;;9.78;100.00;102031.13;5056327;28;20395;-82
2023/01/21 10:29:05;;;;;;;3.08;1.88;;;;;;;9.80;100.00;102030.00;5039835;28;20393;-83
2023/01/21 10:31:39;;;;;;;4.72;2.30;;;;;;;9.87;100.00;102036.50;5055914;28;20037;-84
2023/01/21 10:34:11;;;;;;;;;;;;;;;9.98;100.00;102040.06;5056493;28;20032;-82
2023/01/21 10:36:52;;;;;;;2.70;1.55;;;;;;;10.04;100.00;102036.78;5056370;28;19908;-83
2023/01/21 10:39:24;;;;;;;5.25;2.72;;;;;;;10.09;100.00;102040.75;5056157;28;20054;-83
2023/01/21 10:42:03;;;;;;;6.43;2.72;;;;;;;10.10;100.00;102025.47;5072366;28;20437;-83
2023/01/21 10:44:53;;;;;;;5.28;2.65;;;;;;;10.16;100.00;102035.69;5056086;28;20090;-83
2023/01/21 10:47:24;;;;;;;5.15;2.72;;;;;;;10.25;100.00;102039.34;5055892;28;20045;-83
2023/01/21 10:49:58;;;;;;;5.68;2.47;;;;;;;10.28;100.00;102034.56;5055270;28;20033;-83
2023/01/21 10:52:33;;;;;;;3.67;2.00;;;;;;;10.31;100.00;102034.25;5055965;28;20062;-84
2023/01/21 10:55:33;;;;;;;4.00;2.50;;;;;;;10.33;100.00;102036.81;5055970;28;20036;-83
2023/01/21 10:58:02;;;;;;;5.25;2.95;;;;;;;10.26;100.00;102030.28;5049309;28;20064;-83
2023/01/21 11:00:50;;;;;;;4.28;2.15;;;;;;;10.26;100.00;102039.19;5072408;28;20032;-83
2023/01/21 11:03:29;;;;;;;4.85;2.65;;;;;;;10.24;100.00;102026.88;5039684;28;20025;-83
2023/01/21 11:05:55;;;;;;;2.85;1.63;;;;;;;10.34;100.00;102039.34;5072320;28;20103;-83
2023/01/21 11:08:22;;;;;;;3.67;2.13;;;;;;;10.38;100.00;102042.63;5055550;28;20539;-82
2023/01/21 11:10:52;;;;;;;3.78;2.03;;;;;;;10.47;100.00;102038.22;5055650;28;20109;-83
2023/01/21 11:13:17;;;;;;;4.40;2.33;;;;;;;10.54;100.00;102039.34;5072909;28;20467;-83
2023/01/21 11:15:52;;;;;;;6.03;3.03;;;;;;;10.50;100.00;102029.84;5072407;28;20086;-83
2023/01/21 11:18:37;;;;;;;8.02;2.70;;;;;;;10.63;100.00;102048.38;5039160;28;20044;-82
2023/01/21 11:21:23;;;;;;;2.78;1.60;;;;;;;10.64;100.00;102055.44;5039174;28;20127;-82
2023/01/21 11:24:03;;;;;;;2.65;1.50;;;;;;;10.66;100.00;102059.69;5055400;28;20028;-83
2023/01/21 11:26:34;;;;;;;6.78;3.20;;;;;;;10.57;100.00;102033.66;5039042;28;20031;-82
2023/01/21 11:29:06;;;;;;;7.25;2.88;;;;;;;10.77;100.00;102056.00;5055189;28;20033;-82
2023/01/21 11:31:32;;;;;;;6.07;2.72;;;;;;;10.75;100.00;102037.31;5071966;28;20428;-83
2023/01/21 11:34:19;;;;;;;2.53;1.30;;;;;;;10.85;100.00;102048.06;5038946;28;20123;-82